<?xml version="1.0" encoding="utf-8"?>
<gpx xmlns:xsi="http://www.w3.org/2001/XMLSchema-instance" xmlns:xsd="http://www.w3.org/2001/XMLSchema" version="1.1" creator="Shapelink.com" xmlns="http://www.topografix.com/GPX/1/1" xmlns:gpxtpx="http://www.garmin.com/xmlschemas/TrackPointExtension/v1">
  <metadata>
    <name>Löpning 5.29 km, 2019-08-24</name>
    <desc></desc>
    <author><name>Henrik Staffas</name></author> 
    <time>2019-08-24T10:59:32Z</time>
  </metadata>
  <trk>
    <name>Löpning 5.29 km, 2019-08-24</name>
    <trkseg>
      <trkpt lat="59.451150881194" lon="17.969223167216">
        <ele>24.2</ele>
        <time>2019-08-24T10:59:32Z</time>
      </trkpt>
      <trkpt lat="59.451127830969" lon="17.969193076195">
        <ele>23.2</ele>
        <time>2019-08-24T10:59:34Z</time>
      </trkpt>
      <trkpt lat="59.451101260346" lon="17.969198189154">
        <ele>23.6</ele>
        <time>2019-08-24T10:59:36Z</time>
      </trkpt>
      <trkpt lat="59.451063793253" lon="17.969267507467">
        <ele>24.8</ele>
        <time>2019-08-24T10:59:38Z</time>
      </trkpt>
      <trkpt lat="59.450993050017" lon="17.969368006448">
        <ele>25.4</ele>
        <time>2019-08-24T10:59:43Z</time>
      </trkpt>
      <trkpt lat="59.450977375864" lon="17.969428691404">
        <ele>26</ele>
        <time>2019-08-24T10:59:45Z</time>
      </trkpt>
      <trkpt lat="59.450927755016" lon="17.969527849281">
        <ele>27</ele>
        <time>2019-08-24T10:59:48Z</time>
      </trkpt>
      <trkpt lat="59.450913254329" lon="17.969571854256">
        <ele>27.6</ele>
        <time>2019-08-24T10:59:49Z</time>
      </trkpt>
      <trkpt lat="59.450882241299" lon="17.969672353237">
        <ele>28.4</ele>
        <time>2019-08-24T10:59:51Z</time>
      </trkpt>
      <trkpt lat="59.450848378423" lon="17.969778971005">
        <ele>29.6</ele>
        <time>2019-08-24T10:59:54Z</time>
      </trkpt>
      <trkpt lat="59.450817952126" lon="17.969846780576">
        <ele>30.2</ele>
        <time>2019-08-24T10:59:56Z</time>
      </trkpt>
      <trkpt lat="59.450794231349" lon="17.969946860462">
        <ele>30.6</ele>
        <time>2019-08-24T10:59:58Z</time>
      </trkpt>
      <trkpt lat="59.450723320475" lon="17.970215584176">
        <ele>31.4</ele>
        <time>2019-08-24T11:00:03Z</time>
      </trkpt>
      <trkpt lat="59.450713597471" lon="17.970250536699">
        <ele>31.6</ele>
        <time>2019-08-24T11:00:04Z</time>
      </trkpt>
      <trkpt lat="59.45069440292" lon="17.97036528491">
        <ele>31.6</ele>
        <time>2019-08-24T11:00:07Z</time>
      </trkpt>
      <trkpt lat="59.450680740423" lon="17.970411133903">
        <ele>31.4</ele>
        <time>2019-08-24T11:00:09Z</time>
      </trkpt>
      <trkpt lat="59.450656600551" lon="17.970513141626">
        <ele>31</ele>
        <time>2019-08-24T11:00:11Z</time>
      </trkpt>
      <trkpt lat="59.450618546725" lon="17.970613892064">
        <ele>30.8</ele>
        <time>2019-08-24T11:00:13Z</time>
      </trkpt>
      <trkpt lat="59.450593149568" lon="17.97066703331">
        <ele>30.6</ele>
        <time>2019-08-24T11:00:15Z</time>
      </trkpt>
      <trkpt lat="59.450574038836" lon="17.970704332765">
        <ele>30.4</ele>
        <time>2019-08-24T11:00:17Z</time>
      </trkpt>
      <trkpt lat="59.450547887308" lon="17.970753785975">
        <ele>30.4</ele>
        <time>2019-08-24T11:00:20Z</time>
      </trkpt>
      <trkpt lat="59.450531123508" lon="17.970817404596">
        <ele>30.2</ele>
        <time>2019-08-24T11:00:23Z</time>
      </trkpt>
      <trkpt lat="59.45044965144" lon="17.970949084245">
        <ele>30.2</ele>
        <time>2019-08-24T11:00:27Z</time>
      </trkpt>
      <trkpt lat="59.450436575676" lon="17.97099560379">
        <ele>30.2</ele>
        <time>2019-08-24T11:00:28Z</time>
      </trkpt>
      <trkpt lat="59.450307242959" lon="17.971333561998">
        <ele>30.4</ele>
        <time>2019-08-24T11:00:32Z</time>
      </trkpt>
      <trkpt lat="59.450208504177" lon="17.971546546077">
        <ele>31</ele>
        <time>2019-08-24T11:00:34Z</time>
      </trkpt>
      <trkpt lat="59.450086296075" lon="17.971805630606">
        <ele>31.6</ele>
        <time>2019-08-24T11:00:37Z</time>
      </trkpt>
      <trkpt lat="59.449951682761" lon="17.972114419802">
        <ele>32</ele>
        <time>2019-08-24T11:00:44Z</time>
      </trkpt>
      <trkpt lat="59.449825954261" lon="17.972459754082">
        <ele>32</ele>
        <time>2019-08-24T11:00:50Z</time>
      </trkpt>
      <trkpt lat="59.449694777526" lon="17.972784887983">
        <ele>31.4</ele>
        <time>2019-08-24T11:00:55Z</time>
      </trkpt>
      <trkpt lat="59.449585645188" lon="17.973123181467">
        <ele>31</ele>
        <time>2019-08-24T11:01:02Z</time>
      </trkpt>
      <trkpt lat="59.449564606619" lon="17.973240192791">
        <ele>30.6</ele>
        <time>2019-08-24T11:01:04Z</time>
      </trkpt>
      <trkpt lat="59.449668793636" lon="17.973622072155">
        <ele>29.4</ele>
        <time>2019-08-24T11:01:16Z</time>
      </trkpt>
      <trkpt lat="59.449684048694" lon="17.973647217855">
        <ele>29.2</ele>
        <time>2019-08-24T11:01:17Z</time>
      </trkpt>
      <trkpt lat="59.449713804439" lon="17.973906721479">
        <ele>28.4</ele>
        <time>2019-08-24T11:01:24Z</time>
      </trkpt>
      <trkpt lat="59.449671727301" lon="17.974177792125">
        <ele>28</ele>
        <time>2019-08-24T11:01:28Z</time>
      </trkpt>
      <trkpt lat="59.449621100625" lon="17.97436345121">
        <ele>28</ele>
        <time>2019-08-24T11:01:30Z</time>
      </trkpt>
      <trkpt lat="59.449596793115" lon="17.974514744505">
        <ele>28</ele>
        <time>2019-08-24T11:01:32Z</time>
      </trkpt>
      <trkpt lat="59.449533425951" lon="17.974874076558">
        <ele>27.2</ele>
        <time>2019-08-24T11:01:37Z</time>
      </trkpt>
      <trkpt lat="59.44950668769" lon="17.975016149763">
        <ele>26.6</ele>
        <time>2019-08-24T11:01:41Z</time>
      </trkpt>
      <trkpt lat="59.449492187003" lon="17.975199294278">
        <ele>26.2</ele>
        <time>2019-08-24T11:01:44Z</time>
      </trkpt>
      <trkpt lat="59.449397136257" lon="17.975534989373">
        <ele>26.4</ele>
        <time>2019-08-24T11:01:50Z</time>
      </trkpt>
      <trkpt lat="59.44940191394" lon="17.975757109723">
        <ele>26.8</ele>
        <time>2019-08-24T11:01:56Z</time>
      </trkpt>
      <trkpt lat="59.449427311097" lon="17.976022732134">
        <ele>26.8</ele>
        <time>2019-08-24T11:02:02Z</time>
      </trkpt>
      <trkpt lat="59.449446086553" lon="17.976128511712">
        <ele>27</ele>
        <time>2019-08-24T11:02:05Z</time>
      </trkpt>
      <trkpt lat="59.449420018844" lon="17.976363288731">
        <ele>26.8</ele>
        <time>2019-08-24T11:02:08Z</time>
      </trkpt>
      <trkpt lat="59.449378863715" lon="17.976730583589">
        <ele>26.4</ele>
        <time>2019-08-24T11:02:13Z</time>
      </trkpt>
      <trkpt lat="59.449334774921" lon="17.977116486265">
        <ele>26.2</ele>
        <time>2019-08-24T11:02:19Z</time>
      </trkpt>
      <trkpt lat="59.449344749382" lon="17.977466514409">
        <ele>26.2</ele>
        <time>2019-08-24T11:02:25Z</time>
      </trkpt>
      <trkpt lat="59.449362602829" lon="17.977619567903">
        <ele>26.2</ele>
        <time>2019-08-24T11:02:28Z</time>
      </trkpt>
      <trkpt lat="59.449458659403" lon="17.978102281524">
        <ele>25.6</ele>
        <time>2019-08-24T11:02:41Z</time>
      </trkpt>
      <trkpt lat="59.44941448679" lon="17.9782031996">
        <ele>25.2</ele>
        <time>2019-08-24T11:02:43Z</time>
      </trkpt>
      <trkpt lat="59.449280879304" lon="17.978335130706">
        <ele>24.8</ele>
        <time>2019-08-24T11:02:48Z</time>
      </trkpt>
      <trkpt lat="59.449126736163" lon="17.978448705451">
        <ele>24.4</ele>
        <time>2019-08-24T11:02:52Z</time>
      </trkpt>
      <trkpt lat="59.449044090629" lon="17.978535625754">
        <ele>24</ele>
        <time>2019-08-24T11:02:54Z</time>
      </trkpt>
      <trkpt lat="59.448969826995" lon="17.978602513316">
        <ele>23.2</ele>
        <time>2019-08-24T11:02:57Z</time>
      </trkpt>
      <trkpt lat="59.448940490345" lon="17.978623551885">
        <ele>23</ele>
        <time>2019-08-24T11:02:59Z</time>
      </trkpt>
      <trkpt lat="59.44884703216" lon="17.978747017272">
        <ele>22.6</ele>
        <time>2019-08-24T11:03:05Z</time>
      </trkpt>
      <trkpt lat="59.448814007474" lon="17.97877484518">
        <ele>22.6</ele>
        <time>2019-08-24T11:03:08Z</time>
      </trkpt>
      <trkpt lat="59.448783748815" lon="17.978804349468">
        <ele>22.4</ele>
        <time>2019-08-24T11:03:12Z</time>
      </trkpt>
      <trkpt lat="59.448766482101" lon="17.978804684744">
        <ele>22.4</ele>
        <time>2019-08-24T11:03:14Z</time>
      </trkpt>
      <trkpt lat="59.448673107735" lon="17.978956313315">
        <ele>22.4</ele>
        <time>2019-08-24T11:03:17Z</time>
      </trkpt>
      <trkpt lat="59.44859054602" lon="17.979097632149">
        <ele>22.6</ele>
        <time>2019-08-24T11:03:19Z</time>
      </trkpt>
      <trkpt lat="59.448398349053" lon="17.979308353115">
        <ele>23.2</ele>
        <time>2019-08-24T11:03:24Z</time>
      </trkpt>
      <trkpt lat="59.448211600321" lon="17.979444810447">
        <ele>23.4</ele>
        <time>2019-08-24T11:03:28Z</time>
      </trkpt>
      <trkpt lat="59.448060642302" lon="17.979545309428">
        <ele>23.6</ele>
        <time>2019-08-24T11:03:31Z</time>
      </trkpt>
      <trkpt lat="59.447863919109" lon="17.979568275834">
        <ele>22.2</ele>
        <time>2019-08-24T11:03:37Z</time>
      </trkpt>
      <trkpt lat="59.447845562748" lon="17.979573891707">
        <ele>21.8</ele>
        <time>2019-08-24T11:03:38Z</time>
      </trkpt>
      <trkpt lat="59.447672057418" lon="17.979613621913">
        <ele>20.8</ele>
        <time>2019-08-24T11:03:46Z</time>
      </trkpt>
      <trkpt lat="59.447473574026" lon="17.979609850058">
        <ele>20.6</ele>
        <time>2019-08-24T11:03:54Z</time>
      </trkpt>
      <trkpt lat="59.447267798381" lon="17.979516894787">
        <ele>21.4</ele>
        <time>2019-08-24T11:04:01Z</time>
      </trkpt>
      <trkpt lat="59.447127569194" lon="17.979554110423">
        <ele>22.2</ele>
        <time>2019-08-24T11:04:04Z</time>
      </trkpt>
      <trkpt lat="59.446955991701" lon="17.979577663562">
        <ele>23.4</ele>
        <time>2019-08-24T11:04:10Z</time>
      </trkpt>
      <trkpt lat="59.446931935648" lon="17.979619656881">
        <ele>24</ele>
        <time>2019-08-24T11:04:12Z</time>
      </trkpt>
      <trkpt lat="59.446899665333" lon="17.979677994905">
        <ele>24.4</ele>
        <time>2019-08-24T11:04:14Z</time>
      </trkpt>
      <trkpt lat="59.446887092483" lon="17.979695596895">
        <ele>24.8</ele>
        <time>2019-08-24T11:04:15Z</time>
      </trkpt>
      <trkpt lat="59.446832358676" lon="17.97979156965">
        <ele>24.6</ele>
        <time>2019-08-24T11:04:19Z</time>
      </trkpt>
      <trkpt lat="59.446799920723" lon="17.979836077539">
        <ele>24.8</ele>
        <time>2019-08-24T11:04:23Z</time>
      </trkpt>
      <trkpt lat="59.446777792507" lon="17.979874969555">
        <ele>24.8</ele>
        <time>2019-08-24T11:04:24Z</time>
      </trkpt>
      <trkpt lat="59.446754155549" lon="17.979930122457">
        <ele>24.8</ele>
        <time>2019-08-24T11:04:26Z</time>
      </trkpt>
      <trkpt lat="59.446748455857" lon="17.979935486873">
        <ele>24.8</ele>
        <time>2019-08-24T11:04:27Z</time>
      </trkpt>
      <trkpt lat="59.446706127262" lon="17.979950741931">
        <ele>24.8</ele>
        <time>2019-08-24T11:04:30Z</time>
      </trkpt>
      <trkpt lat="59.446637730958" lon="17.98004554122">
        <ele>25</ele>
        <time>2019-08-24T11:04:34Z</time>
      </trkpt>
      <trkpt lat="59.446573190328" lon="17.980222650767">
        <ele>25.4</ele>
        <time>2019-08-24T11:04:38Z</time>
      </trkpt>
      <trkpt lat="59.446536058511" lon="17.980314348753">
        <ele>25</ele>
        <time>2019-08-24T11:04:41Z</time>
      </trkpt>
      <trkpt lat="59.446400523188" lon="17.980558597319">
        <ele>25.6</ele>
        <time>2019-08-24T11:04:46Z</time>
      </trkpt>
      <trkpt lat="59.446329779952" lon="17.980642583957">
        <ele>25.8</ele>
        <time>2019-08-24T11:04:48Z</time>
      </trkpt>
      <trkpt lat="59.446193657896" lon="17.980696144298">
        <ele>26.4</ele>
        <time>2019-08-24T11:04:52Z</time>
      </trkpt>
      <trkpt lat="59.446155855527" lon="17.98076470824">
        <ele>26.6</ele>
        <time>2019-08-24T11:04:53Z</time>
      </trkpt>
      <trkpt lat="59.445968100967" lon="17.980764624421">
        <ele>26.6</ele>
        <time>2019-08-24T11:04:59Z</time>
      </trkpt>
      <trkpt lat="59.445756541811" lon="17.980732605563">
        <ele>27.2</ele>
        <time>2019-08-24T11:05:08Z</time>
      </trkpt>
      <trkpt lat="59.445664760006" lon="17.980716177039">
        <ele>28</ele>
        <time>2019-08-24T11:05:11Z</time>
      </trkpt>
      <trkpt lat="59.445578677893" lon="17.980671333874">
        <ele>29</ele>
        <time>2019-08-24T11:05:15Z</time>
      </trkpt>
      <trkpt lat="59.445463510587" lon="17.980579635888">
        <ele>30</ele>
        <time>2019-08-24T11:05:21Z</time>
      </trkpt>
      <trkpt lat="59.445282713004" lon="17.98049732563">
        <ele>31</ele>
        <time>2019-08-24T11:05:29Z</time>
      </trkpt>
      <trkpt lat="59.44519420014" lon="17.980504617883">
        <ele>32.2</ele>
        <time>2019-08-24T11:05:33Z</time>
      </trkpt>
      <trkpt lat="59.444996638757" lon="17.98039590464">
        <ele>33</ele>
        <time>2019-08-24T11:05:40Z</time>
      </trkpt>
      <trkpt lat="59.444964871356" lon="17.98039255188">
        <ele>33</ele>
        <time>2019-08-24T11:05:41Z</time>
      </trkpt>
      <trkpt lat="59.444916004879" lon="17.980337566616">
        <ele>33.2</ele>
        <time>2019-08-24T11:05:43Z</time>
      </trkpt>
      <trkpt lat="59.444783738497" lon="17.980248467019">
        <ele>34</ele>
        <time>2019-08-24T11:05:49Z</time>
      </trkpt>
      <trkpt lat="59.444742080454" lon="17.980222818405">
        <ele>34.2</ele>
        <time>2019-08-24T11:05:51Z</time>
      </trkpt>
      <trkpt lat="59.44455549936" lon="17.98010086176">
        <ele>34.8</ele>
        <time>2019-08-24T11:05:57Z</time>
      </trkpt>
      <trkpt lat="59.444370175551" lon="17.979999189313">
        <ele>35.2</ele>
        <time>2019-08-24T11:06:04Z</time>
      </trkpt>
      <trkpt lat="59.444310580242" lon="17.979915370313">
        <ele>35.4</ele>
        <time>2019-08-24T11:06:07Z</time>
      </trkpt>
      <trkpt lat="59.444124250605" lon="17.979824175241">
        <ele>35.4</ele>
        <time>2019-08-24T11:06:15Z</time>
      </trkpt>
      <trkpt lat="59.443925599575" lon="17.979718060387">
        <ele>35.8</ele>
        <time>2019-08-24T11:06:23Z</time>
      </trkpt>
      <trkpt lat="59.443901627341" lon="17.979716886921">
        <ele>35.8</ele>
        <time>2019-08-24T11:06:24Z</time>
      </trkpt>
      <trkpt lat="59.443745472544" lon="17.979540196469">
        <ele>36.2</ele>
        <time>2019-08-24T11:06:31Z</time>
      </trkpt>
      <trkpt lat="59.443634412369" lon="17.979459478772">
        <ele>36</ele>
        <time>2019-08-24T11:06:36Z</time>
      </trkpt>
      <trkpt lat="59.443594682163" lon="17.979369038071">
        <ele>36</ele>
        <time>2019-08-24T11:06:39Z</time>
      </trkpt>
      <trkpt lat="59.443547743523" lon="17.979316567377">
        <ele>36.2</ele>
        <time>2019-08-24T11:06:42Z</time>
      </trkpt>
      <trkpt lat="59.44353458394" lon="17.979318495214">
        <ele>36.4</ele>
        <time>2019-08-24T11:06:43Z</time>
      </trkpt>
      <trkpt lat="59.443525531488" lon="17.979326122743">
        <ele>36.8</ele>
        <time>2019-08-24T11:06:44Z</time>
      </trkpt>
      <trkpt lat="59.443506672213" lon="17.979384125491">
        <ele>37.6</ele>
        <time>2019-08-24T11:06:46Z</time>
      </trkpt>
      <trkpt lat="59.443497452123" lon="17.97942360424">
        <ele>38.8</ele>
        <time>2019-08-24T11:06:48Z</time>
      </trkpt>
      <trkpt lat="59.44349183625" lon="17.979425699715">
        <ele>39.2</ele>
        <time>2019-08-24T11:06:49Z</time>
      </trkpt>
      <trkpt lat="59.44346669055" lon="17.979478757142">
        <ele>40</ele>
        <time>2019-08-24T11:06:51Z</time>
      </trkpt>
      <trkpt lat="59.443432073303" lon="17.979547153446">
        <ele>40.6</ele>
        <time>2019-08-24T11:06:54Z</time>
      </trkpt>
      <trkpt lat="59.443378429143" lon="17.97960381509">
        <ele>41.2</ele>
        <time>2019-08-24T11:06:57Z</time>
      </trkpt>
      <trkpt lat="59.443366023931" lon="17.979627200591">
        <ele>41.2</ele>
        <time>2019-08-24T11:06:58Z</time>
      </trkpt>
      <trkpt lat="59.443297543808" lon="17.97975217472">
        <ele>40.8</ele>
        <time>2019-08-24T11:07:03Z</time>
      </trkpt>
      <trkpt lat="59.443257059231" lon="17.979803974862">
        <ele>40.4</ele>
        <time>2019-08-24T11:07:06Z</time>
      </trkpt>
      <trkpt lat="59.443215904102" lon="17.979900869626">
        <ele>40.2</ele>
        <time>2019-08-24T11:07:08Z</time>
      </trkpt>
      <trkpt lat="59.443096126751" lon="17.980216029066">
        <ele>39.6</ele>
        <time>2019-08-24T11:07:15Z</time>
      </trkpt>
      <trkpt lat="59.443071148689" lon="17.980283335723">
        <ele>39</ele>
        <time>2019-08-24T11:07:17Z</time>
      </trkpt>
      <trkpt lat="59.443014738502" lon="17.980407136386">
        <ele>38.6</ele>
        <time>2019-08-24T11:07:21Z</time>
      </trkpt>
      <trkpt lat="59.442941732153" lon="17.980608637262">
        <ele>37.8</ele>
        <time>2019-08-24T11:07:26Z</time>
      </trkpt>
      <trkpt lat="59.442950030234" lon="17.980601596466">
        <ele>37.8</ele>
        <time>2019-08-24T11:07:27Z</time>
      </trkpt>
      <trkpt lat="59.44292521981" lon="17.980673680806">
        <ele>37.2</ele>
        <time>2019-08-24T11:07:31Z</time>
      </trkpt>
      <trkpt lat="59.442916921729" lon="17.980703352732">
        <ele>37</ele>
        <time>2019-08-24T11:07:32Z</time>
      </trkpt>
      <trkpt lat="59.442915664444" lon="17.980742244748">
        <ele>36.8</ele>
        <time>2019-08-24T11:07:33Z</time>
      </trkpt>
      <trkpt lat="59.44279027122" lon="17.981136696962">
        <ele>36.2</ele>
        <time>2019-08-24T11:07:38Z</time>
      </trkpt>
      <trkpt lat="59.442763197683" lon="17.981198303927">
        <ele>35.8</ele>
        <time>2019-08-24T11:07:40Z</time>
      </trkpt>
      <trkpt lat="59.442675942104" lon="17.981310202292">
        <ele>35.4</ele>
        <time>2019-08-24T11:07:44Z</time>
      </trkpt>
      <trkpt lat="59.442508807018" lon="17.9815140501">
        <ele>34.6</ele>
        <time>2019-08-24T11:07:48Z</time>
      </trkpt>
      <trkpt lat="59.442354663877" lon="17.981589738657">
        <ele>33.6</ele>
        <time>2019-08-24T11:07:52Z</time>
      </trkpt>
      <trkpt lat="59.442214602328" lon="17.981654698382">
        <ele>32.4</ele>
        <time>2019-08-24T11:07:56Z</time>
      </trkpt>
      <trkpt lat="59.442136902115" lon="17.981752515155">
        <ele>30.8</ele>
        <time>2019-08-24T11:07:59Z</time>
      </trkpt>
      <trkpt lat="59.442086107801" lon="17.981810517903">
        <ele>29.6</ele>
        <time>2019-08-24T11:08:02Z</time>
      </trkpt>
      <trkpt lat="59.442077055349" lon="17.9818157985">
        <ele>29.6</ele>
        <time>2019-08-24T11:08:04Z</time>
      </trkpt>
      <trkpt lat="59.441947471175" lon="17.982018891937">
        <ele>29</ele>
        <time>2019-08-24T11:08:08Z</time>
      </trkpt>
      <trkpt lat="59.441741611711" lon="17.982241179925">
        <ele>28.8</ele>
        <time>2019-08-24T11:08:13Z</time>
      </trkpt>
      <trkpt lat="59.441631389726" lon="17.982444189543">
        <ele>28.6</ele>
        <time>2019-08-24T11:08:19Z</time>
      </trkpt>
      <trkpt lat="59.441636167409" lon="17.982539659384">
        <ele>28.8</ele>
        <time>2019-08-24T11:08:20Z</time>
      </trkpt>
      <trkpt lat="59.441617559591" lon="17.982563883075">
        <ele>28.6</ele>
        <time>2019-08-24T11:08:22Z</time>
      </trkpt>
      <trkpt lat="59.44157154296" lon="17.982632949931">
        <ele>28.4</ele>
        <time>2019-08-24T11:08:26Z</time>
      </trkpt>
      <trkpt lat="59.441514294583" lon="17.98276882053">
        <ele>28</ele>
        <time>2019-08-24T11:08:29Z</time>
      </trkpt>
      <trkpt lat="59.441478336232" lon="17.982843754716">
        <ele>27.8</ele>
        <time>2019-08-24T11:08:31Z</time>
      </trkpt>
      <trkpt lat="59.441467523581" lon="17.982859177412">
        <ele>27.6</ele>
        <time>2019-08-24T11:08:32Z</time>
      </trkpt>
      <trkpt lat="59.441447658478" lon="17.982880718895">
        <ele>27.2</ele>
        <time>2019-08-24T11:08:33Z</time>
      </trkpt>
      <trkpt lat="59.441312123155" lon="17.983179449811">
        <ele>26.8</ele>
        <time>2019-08-24T11:08:40Z</time>
      </trkpt>
      <trkpt lat="59.441294353527" lon="17.983200823656">
        <ele>26.8</ele>
        <time>2019-08-24T11:08:41Z</time>
      </trkpt>
      <trkpt lat="59.441250264733" lon="17.983292521642">
        <ele>26.8</ele>
        <time>2019-08-24T11:08:43Z</time>
      </trkpt>
      <trkpt lat="59.441202152627" lon="17.983356475539">
        <ele>26.6</ele>
        <time>2019-08-24T11:08:46Z</time>
      </trkpt>
      <trkpt lat="59.441154794892" lon="17.983451191009">
        <ele>26.8</ele>
        <time>2019-08-24T11:08:48Z</time>
      </trkpt>
      <trkpt lat="59.440996460801" lon="17.9836681984">
        <ele>26.4</ele>
        <time>2019-08-24T11:08:55Z</time>
      </trkpt>
      <trkpt lat="59.440924041185" lon="17.983778085109">
        <ele>26.4</ele>
        <time>2019-08-24T11:08:58Z</time>
      </trkpt>
      <trkpt lat="59.44089009449" lon="17.983814294917">
        <ele>26.8</ele>
        <time>2019-08-24T11:09:00Z</time>
      </trkpt>
      <trkpt lat="59.440857321261" lon="17.983862574661">
        <ele>27.2</ele>
        <time>2019-08-24T11:09:02Z</time>
      </trkpt>
      <trkpt lat="59.440821614367" lon="17.983940191055">
        <ele>27.6</ele>
        <time>2019-08-24T11:09:04Z</time>
      </trkpt>
      <trkpt lat="59.440807281318" lon="17.983967935144">
        <ele>27.6</ele>
        <time>2019-08-24T11:09:05Z</time>
      </trkpt>
      <trkpt lat="59.440751374045" lon="17.984071619247">
        <ele>27.8</ele>
        <time>2019-08-24T11:09:08Z</time>
      </trkpt>
      <trkpt lat="59.440679457343" lon="17.984183014698">
        <ele>28</ele>
        <time>2019-08-24T11:09:12Z</time>
      </trkpt>
      <trkpt lat="59.44059756618" lon="17.984291392665">
        <ele>27.2</ele>
        <time>2019-08-24T11:09:17Z</time>
      </trkpt>
      <trkpt lat="59.44054308383" lon="17.984384096479">
        <ele>26.2</ele>
        <time>2019-08-24T11:09:20Z</time>
      </trkpt>
      <trkpt lat="59.440425234316" lon="17.984509573522">
        <ele>24.8</ele>
        <time>2019-08-24T11:09:23Z</time>
      </trkpt>
      <trkpt lat="59.440281233274" lon="17.984737058288">
        <ele>23.6</ele>
        <time>2019-08-24T11:09:27Z</time>
      </trkpt>
      <trkpt lat="59.44014410539" lon="17.984900086243">
        <ele>22.4</ele>
        <time>2019-08-24T11:09:31Z</time>
      </trkpt>
      <trkpt lat="59.440113762912" lon="17.984958256629">
        <ele>22.2</ele>
        <time>2019-08-24T11:09:33Z</time>
      </trkpt>
      <trkpt lat="59.440003876203" lon="17.985132181054">
        <ele>21</ele>
        <time>2019-08-24T11:09:39Z</time>
      </trkpt>
      <trkpt lat="59.43988175192" lon="17.985344410762">
        <ele>20.6</ele>
        <time>2019-08-24T11:09:45Z</time>
      </trkpt>
      <trkpt lat="59.439728279331" lon="17.985563513628">
        <ele>20.4</ele>
        <time>2019-08-24T11:09:49Z</time>
      </trkpt>
      <trkpt lat="59.439636581345" lon="17.985696953476">
        <ele>19.8</ele>
        <time>2019-08-24T11:09:52Z</time>
      </trkpt>
      <trkpt lat="59.439504314963" lon="17.985996522582">
        <ele>19.8</ele>
        <time>2019-08-24T11:09:57Z</time>
      </trkpt>
      <trkpt lat="59.439401552869" lon="17.98632777527">
        <ele>21</ele>
        <time>2019-08-24T11:10:03Z</time>
      </trkpt>
      <trkpt lat="59.439358218446" lon="17.986500777686">
        <ele>22.2</ele>
        <time>2019-08-24T11:10:07Z</time>
      </trkpt>
      <trkpt lat="59.439295438015" lon="17.986838149161">
        <ele>23.4</ele>
        <time>2019-08-24T11:10:13Z</time>
      </trkpt>
      <trkpt lat="59.439310609254" lon="17.987224554751">
        <ele>23</ele>
        <time>2019-08-24T11:10:21Z</time>
      </trkpt>
      <trkpt lat="59.439319577887" lon="17.987506689505">
        <ele>22.2</ele>
        <time>2019-08-24T11:10:26Z</time>
      </trkpt>
      <trkpt lat="59.43937380878" lon="17.98777281483">
        <ele>21.2</ele>
        <time>2019-08-24T11:10:32Z</time>
      </trkpt>
      <trkpt lat="59.439435248107" lon="17.988155532384">
        <ele>20.2</ele>
        <time>2019-08-24T11:10:40Z</time>
      </trkpt>
      <trkpt lat="59.439436840668" lon="17.988217223168">
        <ele>19.8</ele>
        <time>2019-08-24T11:10:41Z</time>
      </trkpt>
      <trkpt lat="59.439479923634" lon="17.988599521627">
        <ele>18.8</ele>
        <time>2019-08-24T11:10:47Z</time>
      </trkpt>
      <trkpt lat="59.439480091272" lon="17.988717957874">
        <ele>18.8</ele>
        <time>2019-08-24T11:10:49Z</time>
      </trkpt>
      <trkpt lat="59.439602215555" lon="17.989012414021">
        <ele>18.2</ele>
        <time>2019-08-24T11:10:55Z</time>
      </trkpt>
      <trkpt lat="59.439608585799" lon="17.989070919683">
        <ele>18.2</ele>
        <time>2019-08-24T11:10:56Z</time>
      </trkpt>
      <trkpt lat="59.439678239388" lon="17.989439555645">
        <ele>18.6</ele>
        <time>2019-08-24T11:11:03Z</time>
      </trkpt>
      <trkpt lat="59.439733979023" lon="17.989821770285">
        <ele>18.4</ele>
        <time>2019-08-24T11:11:10Z</time>
      </trkpt>
      <trkpt lat="59.439766333157" lon="17.990189651876">
        <ele>18.4</ele>
        <time>2019-08-24T11:11:17Z</time>
      </trkpt>
      <trkpt lat="59.439797262368" lon="17.990729362417">
        <ele>19.4</ele>
        <time>2019-08-24T11:11:28Z</time>
      </trkpt>
      <trkpt lat="59.439772871039" lon="17.991116606197">
        <ele>18.6</ele>
        <time>2019-08-24T11:11:36Z</time>
      </trkpt>
      <trkpt lat="59.439784438061" lon="17.991491109489">
        <ele>19.2</ele>
        <time>2019-08-24T11:11:44Z</time>
      </trkpt>
      <trkpt lat="59.439827772484" lon="17.991864690772">
        <ele>18.4</ele>
        <time>2019-08-24T11:11:51Z</time>
      </trkpt>
      <trkpt lat="59.439829616502" lon="17.99198136682">
        <ele>18.8</ele>
        <time>2019-08-24T11:11:54Z</time>
      </trkpt>
      <trkpt lat="59.439824000629" lon="17.992306081626">
        <ele>20.2</ele>
        <time>2019-08-24T11:12:01Z</time>
      </trkpt>
      <trkpt lat="59.439833388357" lon="17.9923602287">
        <ele>20.6</ele>
        <time>2019-08-24T11:12:03Z</time>
      </trkpt>
      <trkpt lat="59.439868508518" lon="17.992451507591">
        <ele>21.4</ele>
        <time>2019-08-24T11:12:06Z</time>
      </trkpt>
      <trkpt lat="59.439897509892" lon="17.992502469543">
        <ele>21.6</ele>
        <time>2019-08-24T11:12:08Z</time>
      </trkpt>
      <trkpt lat="59.439961128513" lon="17.992555694608">
        <ele>21.8</ele>
        <time>2019-08-24T11:12:11Z</time>
      </trkpt>
      <trkpt lat="59.440029189541" lon="17.992644626567">
        <ele>22.4</ele>
        <time>2019-08-24T11:12:15Z</time>
      </trkpt>
      <trkpt lat="59.440210406219" lon="17.992715788898">
        <ele>22.8</ele>
        <time>2019-08-24T11:12:22Z</time>
      </trkpt>
      <trkpt lat="59.440407129412" lon="17.992824083046">
        <ele>22.6</ele>
        <time>2019-08-24T11:12:29Z</time>
      </trkpt>
      <trkpt lat="59.44059505161" lon="17.992942603112">
        <ele>22.8</ele>
        <time>2019-08-24T11:12:37Z</time>
      </trkpt>
      <trkpt lat="59.440644588639" lon="17.99296959283">
        <ele>23</ele>
        <time>2019-08-24T11:12:39Z</time>
      </trkpt>
      <trkpt lat="59.440703848672" lon="17.993004545353">
        <ele>23</ele>
        <time>2019-08-24T11:12:42Z</time>
      </trkpt>
      <trkpt lat="59.440877437821" lon="17.993146199463">
        <ele>22.8</ele>
        <time>2019-08-24T11:12:49Z</time>
      </trkpt>
      <trkpt lat="59.440904259901" lon="17.993219541088">
        <ele>22.6</ele>
        <time>2019-08-24T11:12:51Z</time>
      </trkpt>
      <trkpt lat="59.440946588496" lon="17.993269916307">
        <ele>22.2</ele>
        <time>2019-08-24T11:12:53Z</time>
      </trkpt>
      <trkpt lat="59.441028898754" lon="17.993359518818">
        <ele>21.2</ele>
        <time>2019-08-24T11:12:56Z</time>
      </trkpt>
      <trkpt lat="59.441102072741" lon="17.993475440495">
        <ele>20.2</ele>
        <time>2019-08-24T11:12:59Z</time>
      </trkpt>
      <trkpt lat="59.441117746894" lon="17.993513745778">
        <ele>19.8</ele>
        <time>2019-08-24T11:13:00Z</time>
      </trkpt>
      <trkpt lat="59.44116502081" lon="17.993574933648">
        <ele>19</ele>
        <time>2019-08-24T11:13:02Z</time>
      </trkpt>
      <trkpt lat="59.441218581151" lon="17.993634109862">
        <ele>18</ele>
        <time>2019-08-24T11:13:05Z</time>
      </trkpt>
      <trkpt lat="59.441386973522" lon="17.993765286597">
        <ele>17.2</ele>
        <time>2019-08-24T11:13:14Z</time>
      </trkpt>
      <trkpt lat="59.44163356902" lon="17.993847764493">
        <ele>18.2</ele>
        <time>2019-08-24T11:13:22Z</time>
      </trkpt>
      <trkpt lat="59.441732810716" lon="17.993899396997">
        <ele>19</ele>
        <time>2019-08-24T11:13:28Z</time>
      </trkpt>
      <trkpt lat="59.441944956605" lon="17.993935774443">
        <ele>20</ele>
        <time>2019-08-24T11:13:34Z</time>
      </trkpt>
      <trkpt lat="59.442123239618" lon="17.994035183777">
        <ele>19.8</ele>
        <time>2019-08-24T11:13:40Z</time>
      </trkpt>
      <trkpt lat="59.442267156841" lon="17.994090588136">
        <ele>18.8</ele>
        <time>2019-08-24T11:13:45Z</time>
      </trkpt>
      <trkpt lat="59.442291799627" lon="17.994097712751">
        <ele>18.4</ele>
        <time>2019-08-24T11:13:46Z</time>
      </trkpt>
      <trkpt lat="59.442359190103" lon="17.994111123791">
        <ele>17.6</ele>
        <time>2019-08-24T11:13:49Z</time>
      </trkpt>
      <trkpt lat="59.442475363237" lon="17.994071058309">
        <ele>16.4</ele>
        <time>2019-08-24T11:13:53Z</time>
      </trkpt>
      <trkpt lat="59.44260335485" lon="17.993970643147">
        <ele>15.4</ele>
        <time>2019-08-24T11:13:59Z</time>
      </trkpt>
      <trkpt lat="59.442698657053" lon="17.99390668925">
        <ele>15.4</ele>
        <time>2019-08-24T11:14:03Z</time>
      </trkpt>
      <trkpt lat="59.442880460464" lon="17.993757994344">
        <ele>16.4</ele>
        <time>2019-08-24T11:14:12Z</time>
      </trkpt>
      <trkpt lat="59.44305262469" lon="17.993606114316">
        <ele>16.6</ele>
        <time>2019-08-24T11:14:19Z</time>
      </trkpt>
      <trkpt lat="59.443211126419" lon="17.993502597851">
        <ele>15.2</ele>
        <time>2019-08-24T11:14:25Z</time>
      </trkpt>
      <trkpt lat="59.443274661221" lon="17.993442248171">
        <ele>14</ele>
        <time>2019-08-24T11:14:28Z</time>
      </trkpt>
      <trkpt lat="59.443331909598" lon="17.99337108584">
        <ele>12.6</ele>
        <time>2019-08-24T11:14:31Z</time>
      </trkpt>
      <trkpt lat="59.443528129877" lon="17.993249380652">
        <ele>12.2</ele>
        <time>2019-08-24T11:14:36Z</time>
      </trkpt>
      <trkpt lat="59.443683278846" lon="17.993064056843">
        <ele>12.2</ele>
        <time>2019-08-24T11:14:42Z</time>
      </trkpt>
      <trkpt lat="59.443840188014" lon="17.992845205434">
        <ele>12.8</ele>
        <time>2019-08-24T11:14:50Z</time>
      </trkpt>
      <trkpt lat="59.443944877945" lon="17.992684356773">
        <ele>13.8</ele>
        <time>2019-08-24T11:14:55Z</time>
      </trkpt>
      <trkpt lat="59.444044706374" lon="17.992574637702">
        <ele>14.8</ele>
        <time>2019-08-24T11:15:00Z</time>
      </trkpt>
      <trkpt lat="59.444155012178" lon="17.992279175727">
        <ele>15.8</ele>
        <time>2019-08-24T11:15:08Z</time>
      </trkpt>
      <trkpt lat="59.444166160105" lon="17.992235757485">
        <ele>16.2</ele>
        <time>2019-08-24T11:15:09Z</time>
      </trkpt>
      <trkpt lat="59.444215110401" lon="17.992037106455">
        <ele>17.4</ele>
        <time>2019-08-24T11:15:13Z</time>
      </trkpt>
      <trkpt lat="59.444300521962" lon="17.991868127351">
        <ele>18.4</ele>
        <time>2019-08-24T11:15:18Z</time>
      </trkpt>
      <trkpt lat="59.444376797252" lon="17.991772573691">
        <ele>19.6</ele>
        <time>2019-08-24T11:15:22Z</time>
      </trkpt>
      <trkpt lat="59.444540160483" lon="17.991570318444">
        <ele>20</ele>
        <time>2019-08-24T11:15:31Z</time>
      </trkpt>
      <trkpt lat="59.444729339966" lon="17.991495048982">
        <ele>20.2</ele>
        <time>2019-08-24T11:15:40Z</time>
      </trkpt>
      <trkpt lat="59.444782313574" lon="17.991489600747">
        <ele>20.6</ele>
        <time>2019-08-24T11:15:42Z</time>
      </trkpt>
      <trkpt lat="59.444900330726" lon="17.991520697596">
        <ele>21.8</ele>
        <time>2019-08-24T11:15:47Z</time>
      </trkpt>
      <trkpt lat="59.445011390901" lon="17.991531007333">
        <ele>22.8</ele>
        <time>2019-08-24T11:15:52Z</time>
      </trkpt>
      <trkpt lat="59.445084648707" lon="17.991519607949">
        <ele>24.2</ele>
        <time>2019-08-24T11:15:56Z</time>
      </trkpt>
      <trkpt lat="59.445188751905" lon="17.991530252962">
        <ele>25.6</ele>
        <time>2019-08-24T11:16:00Z</time>
      </trkpt>
      <trkpt lat="59.445234768536" lon="17.991554476653">
        <ele>26.2</ele>
        <time>2019-08-24T11:16:03Z</time>
      </trkpt>
      <trkpt lat="59.445266955032" lon="17.991602756397">
        <ele>27</ele>
        <time>2019-08-24T11:16:06Z</time>
      </trkpt>
      <trkpt lat="59.445277935321" lon="17.991658496032">
        <ele>27.8</ele>
        <time>2019-08-24T11:16:08Z</time>
      </trkpt>
      <trkpt lat="59.445297046053" lon="17.991729155449">
        <ele>28.2</ele>
        <time>2019-08-24T11:16:10Z</time>
      </trkpt>
      <trkpt lat="59.445330322196" lon="17.991783973075">
        <ele>28.4</ele>
        <time>2019-08-24T11:16:12Z</time>
      </trkpt>
      <trkpt lat="59.445338620277" lon="17.991804341092">
        <ele>28.4</ele>
        <time>2019-08-24T11:16:13Z</time>
      </trkpt>
      <trkpt lat="59.445367454013" lon="17.991865109867">
        <ele>28.6</ele>
        <time>2019-08-24T11:16:15Z</time>
      </trkpt>
      <trkpt lat="59.445472898315" lon="17.992054792264">
        <ele>29.4</ele>
        <time>2019-08-24T11:16:22Z</time>
      </trkpt>
      <trkpt lat="59.445602650127" lon="17.992130480821">
        <ele>30.4</ele>
        <time>2019-08-24T11:16:29Z</time>
      </trkpt>
      <trkpt lat="59.445785459366" lon="17.992115058125">
        <ele>30.4</ele>
        <time>2019-08-24T11:16:36Z</time>
      </trkpt>
      <trkpt lat="59.445978662161" lon="17.992010032918">
        <ele>30.4</ele>
        <time>2019-08-24T11:16:43Z</time>
      </trkpt>
      <trkpt lat="59.446162728685" lon="17.992021264664">
        <ele>31</ele>
        <time>2019-08-24T11:16:51Z</time>
      </trkpt>
      <trkpt lat="59.446268843539" lon="17.992002153932">
        <ele>30.6</ele>
        <time>2019-08-24T11:16:56Z</time>
      </trkpt>
      <trkpt lat="59.446467662207" lon="17.992020510293">
        <ele>30</ele>
        <time>2019-08-24T11:17:03Z</time>
      </trkpt>
      <trkpt lat="59.446558941098" lon="17.992038196102">
        <ele>29.4</ele>
        <time>2019-08-24T11:17:06Z</time>
      </trkpt>
      <trkpt lat="59.44669204567" lon="17.992031490582">
        <ele>28.4</ele>
        <time>2019-08-24T11:17:10Z</time>
      </trkpt>
      <trkpt lat="59.446834621789" lon="17.991954125645">
        <ele>27.2</ele>
        <time>2019-08-24T11:17:16Z</time>
      </trkpt>
      <trkpt lat="59.447160090966" lon="17.991677606764">
        <ele>27.2</ele>
        <time>2019-08-24T11:17:31Z</time>
      </trkpt>
      <trkpt lat="59.447353209942" lon="17.99157652105">
        <ele>26.6</ele>
        <time>2019-08-24T11:17:39Z</time>
      </trkpt>
      <trkpt lat="59.44737768509" lon="17.991548944599">
        <ele>26.2</ele>
        <time>2019-08-24T11:17:40Z</time>
      </trkpt>
      <trkpt lat="59.447518081915" lon="17.991418857511">
        <ele>25.2</ele>
        <time>2019-08-24T11:17:46Z</time>
      </trkpt>
      <trkpt lat="59.447662334414" lon="17.991184415768">
        <ele>25.4</ele>
        <time>2019-08-24T11:17:54Z</time>
      </trkpt>
      <trkpt lat="59.447735340763" lon="17.990956344269">
        <ele>26.2</ele>
        <time>2019-08-24T11:18:00Z</time>
      </trkpt>
      <trkpt lat="59.447775490064" lon="17.99086741231">
        <ele>26.4</ele>
        <time>2019-08-24T11:18:03Z</time>
      </trkpt>
      <trkpt lat="59.44788981918" lon="17.990563233159">
        <ele>26.2</ele>
        <time>2019-08-24T11:18:11Z</time>
      </trkpt>
      <trkpt lat="59.447948073385" lon="17.99008370466">
        <ele>26.4</ele>
        <time>2019-08-24T11:18:19Z</time>
      </trkpt>
      <trkpt lat="59.447999789708" lon="17.989872396961">
        <ele>26.8</ele>
        <time>2019-08-24T11:18:25Z</time>
      </trkpt>
      <trkpt lat="59.448080507405" lon="17.989500240601">
        <ele>25.8</ele>
        <time>2019-08-24T11:18:33Z</time>
      </trkpt>
      <trkpt lat="59.44814043799" lon="17.989365124373">
        <ele>24.8</ele>
        <time>2019-08-24T11:18:36Z</time>
      </trkpt>
      <trkpt lat="59.448187628087" lon="17.989299913191">
        <ele>23.8</ele>
        <time>2019-08-24T11:18:38Z</time>
      </trkpt>
      <trkpt lat="59.448254515649" lon="17.989228415584">
        <ele>22.4</ele>
        <time>2019-08-24T11:18:41Z</time>
      </trkpt>
      <trkpt lat="59.448413771749" lon="17.98896975015">
        <ele>21.4</ele>
        <time>2019-08-24T11:18:49Z</time>
      </trkpt>
      <trkpt lat="59.44858551688" lon="17.988824324185">
        <ele>21</ele>
        <time>2019-08-24T11:18:55Z</time>
      </trkpt>
      <trkpt lat="59.448742761324" lon="17.988599689265">
        <ele>21</ele>
        <time>2019-08-24T11:19:03Z</time>
      </trkpt>
      <trkpt lat="59.44893085116" lon="17.988440349346">
        <ele>21.2</ele>
        <time>2019-08-24T11:19:10Z</time>
      </trkpt>
      <trkpt lat="59.449046102285" lon="17.988337168157">
        <ele>20.2</ele>
        <time>2019-08-24T11:19:16Z</time>
      </trkpt>
      <trkpt lat="59.449229917352" lon="17.988245051076">
        <ele>19.6</ele>
        <time>2019-08-24T11:19:25Z</time>
      </trkpt>
      <trkpt lat="59.449416079351" lon="17.988175816582">
        <ele>19.8</ele>
        <time>2019-08-24T11:19:32Z</time>
      </trkpt>
      <trkpt lat="59.449515237228" lon="17.988103732242">
        <ele>19.2</ele>
        <time>2019-08-24T11:19:36Z</time>
      </trkpt>
      <trkpt lat="59.449699303752" lon="17.987942799762">
        <ele>19</ele>
        <time>2019-08-24T11:19:43Z</time>
      </trkpt>
      <trkpt lat="59.449816734171" lon="17.987668627813">
        <ele>19.2</ele>
        <time>2019-08-24T11:19:50Z</time>
      </trkpt>
      <trkpt lat="59.449859146585" lon="17.987571481592">
        <ele>19</ele>
        <time>2019-08-24T11:19:52Z</time>
      </trkpt>
      <trkpt lat="59.449964171792" lon="17.9872388878">
        <ele>18.6</ele>
        <time>2019-08-24T11:19:58Z</time>
      </trkpt>
      <trkpt lat="59.450000884514" lon="17.98714249595">
        <ele>18</ele>
        <time>2019-08-24T11:20:00Z</time>
      </trkpt>
      <trkpt lat="59.450080512564" lon="17.986980138547">
        <ele>17</ele>
        <time>2019-08-24T11:20:04Z</time>
      </trkpt>
      <trkpt lat="59.450189728721" lon="17.986833622935">
        <ele>15.8</ele>
        <time>2019-08-24T11:20:09Z</time>
      </trkpt>
      <trkpt lat="59.450352672857" lon="17.986643353805">
        <ele>15.4</ele>
        <time>2019-08-24T11:20:17Z</time>
      </trkpt>
      <trkpt lat="59.450525675273" lon="17.986455850702">
        <ele>15.8</ele>
        <time>2019-08-24T11:20:24Z</time>
      </trkpt>
      <trkpt lat="59.450687362124" lon="17.986276980956">
        <ele>15</ele>
        <time>2019-08-24T11:20:31Z</time>
      </trkpt>
      <trkpt lat="59.45070613758" lon="17.986257032034">
        <ele>14.8</ele>
        <time>2019-08-24T11:20:32Z</time>
      </trkpt>
      <trkpt lat="59.450750394012" lon="17.986192575223">
        <ele>14.2</ele>
        <time>2019-08-24T11:20:35Z</time>
      </trkpt>
      <trkpt lat="59.450852150278" lon="17.985856209576">
        <ele>14.2</ele>
        <time>2019-08-24T11:20:43Z</time>
      </trkpt>
      <trkpt lat="59.450945189368" lon="17.985483466483">
        <ele>14.4</ele>
        <time>2019-08-24T11:20:51Z</time>
      </trkpt>
      <trkpt lat="59.451051136584" lon="17.985174593468">
        <ele>15</ele>
        <time>2019-08-24T11:20:58Z</time>
      </trkpt>
      <trkpt lat="59.451166890623" lon="17.984821631659">
        <ele>15.2</ele>
        <time>2019-08-24T11:21:06Z</time>
      </trkpt>
      <trkpt lat="59.451273089296" lon="17.984481661795">
        <ele>14.2</ele>
        <time>2019-08-24T11:21:13Z</time>
      </trkpt>
      <trkpt lat="59.451339390125" lon="17.984123251751">
        <ele>14.2</ele>
        <time>2019-08-24T11:21:21Z</time>
      </trkpt>
      <trkpt lat="59.451423460582" lon="17.983713376841">
        <ele>15.2</ele>
        <time>2019-08-24T11:21:30Z</time>
      </trkpt>
      <trkpt lat="59.451474087258" lon="17.983534423276">
        <ele>14.8</ele>
        <time>2019-08-24T11:21:34Z</time>
      </trkpt>
      <trkpt lat="59.451628062761" lon="17.983196548887">
        <ele>14.8</ele>
        <time>2019-08-24T11:21:45Z</time>
      </trkpt>
      <trkpt lat="59.451645497113" lon="17.983183473123">
        <ele>14.6</ele>
        <time>2019-08-24T11:21:46Z</time>
      </trkpt>
      <trkpt lat="59.451788743784" lon="17.983074340785">
        <ele>14.6</ele>
        <time>2019-08-24T11:21:52Z</time>
      </trkpt>
      <trkpt lat="59.451887063471" lon="17.983008794327">
        <ele>14.6</ele>
        <time>2019-08-24T11:21:55Z</time>
      </trkpt>
      <trkpt lat="59.452077081144" lon="17.982868481321">
        <ele>14.6</ele>
        <time>2019-08-24T11:22:02Z</time>
      </trkpt>
      <trkpt lat="59.452276235088" lon="17.982769742539">
        <ele>14.6</ele>
        <time>2019-08-24T11:22:08Z</time>
      </trkpt>
      <trkpt lat="59.452423924166" lon="17.982570923871">
        <ele>15.8</ele>
        <time>2019-08-24T11:22:16Z</time>
      </trkpt>
      <trkpt lat="59.452475305213" lon="17.982473442374">
        <ele>16.2</ele>
        <time>2019-08-24T11:22:19Z</time>
      </trkpt>
      <trkpt lat="59.452492404289" lon="17.982317958129">
        <ele>16.8</ele>
        <time>2019-08-24T11:22:23Z</time>
      </trkpt>
      <trkpt lat="59.452415290809" lon="17.981987878907">
        <ele>17.2</ele>
        <time>2019-08-24T11:22:30Z</time>
      </trkpt>
      <trkpt lat="59.452378410449" lon="17.981750922594">
        <ele>18</ele>
        <time>2019-08-24T11:22:36Z</time>
      </trkpt>
      <trkpt lat="59.452360389364" lon="17.981614129986">
        <ele>19</ele>
        <time>2019-08-24T11:22:39Z</time>
      </trkpt>
      <trkpt lat="59.452345721039" lon="17.981494604092">
        <ele>19.6</ele>
        <time>2019-08-24T11:22:42Z</time>
      </trkpt>
      <trkpt lat="59.452352678016" lon="17.981437271896">
        <ele>19.6</ele>
        <time>2019-08-24T11:22:44Z</time>
      </trkpt>
      <trkpt lat="59.452325772117" lon="17.981294276682">
        <ele>19.6</ele>
        <time>2019-08-24T11:22:47Z</time>
      </trkpt>
      <trkpt lat="59.452243713316" lon="17.980945673461">
        <ele>19.4</ele>
        <time>2019-08-24T11:22:54Z</time>
      </trkpt>
      <trkpt lat="59.452117481902" lon="17.98063143603">
        <ele>19.8</ele>
        <time>2019-08-24T11:23:02Z</time>
      </trkpt>
      <trkpt lat="59.452101807749" lon="17.98061215766">
        <ele>20</ele>
        <time>2019-08-24T11:23:03Z</time>
      </trkpt>
      <trkpt lat="59.452045397562" lon="17.980497912363">
        <ele>21.2</ele>
        <time>2019-08-24T11:23:07Z</time>
      </trkpt>
      <trkpt lat="59.45196509896" lon="17.98030538012">
        <ele>22.4</ele>
        <time>2019-08-24T11:23:12Z</time>
      </trkpt>
      <trkpt lat="59.451841465935" lon="17.980066244513">
        <ele>23.6</ele>
        <time>2019-08-24T11:23:19Z</time>
      </trkpt>
      <trkpt lat="59.451744738809" lon="17.979863151076">
        <ele>24.8</ele>
        <time>2019-08-24T11:23:25Z</time>
      </trkpt>
      <trkpt lat="59.451620519051" lon="17.979532485121">
        <ele>26</ele>
        <time>2019-08-24T11:23:32Z</time>
      </trkpt>
      <trkpt lat="59.451523121373" lon="17.97918220552">
        <ele>26.2</ele>
        <time>2019-08-24T11:23:40Z</time>
      </trkpt>
      <trkpt lat="59.451485905737" lon="17.979063685454">
        <ele>25.8</ele>
        <time>2019-08-24T11:23:43Z</time>
      </trkpt>
      <trkpt lat="59.451484145538" lon="17.9789324249">
        <ele>26.2</ele>
        <time>2019-08-24T11:23:46Z</time>
      </trkpt>
      <trkpt lat="59.45155690043" lon="17.97891147015">
        <ele>26.2</ele>
        <time>2019-08-24T11:25:22Z</time>
      </trkpt>
      <trkpt lat="59.45154432758" lon="17.978916331652">
        <ele>27.4</ele>
        <time>2019-08-24T11:25:24Z</time>
      </trkpt>
      <trkpt lat="59.451541393915" lon="17.978920857878">
        <ele>26.4</ele>
        <time>2019-08-24T11:25:25Z</time>
      </trkpt>
      <trkpt lat="59.451577436085" lon="17.978956983867">
        <ele>26.2</ele>
        <time>2019-08-24T11:25:29Z</time>
      </trkpt>
      <trkpt lat="59.451657315592" lon="17.979013310235">
        <ele>26.8</ele>
        <time>2019-08-24T11:25:34Z</time>
      </trkpt>
      <trkpt lat="59.451718419643" lon="17.9789910982">
        <ele>27.6</ele>
        <time>2019-08-24T11:25:37Z</time>
      </trkpt>
      <trkpt lat="59.451893266077" lon="17.978887917011">
        <ele>28.6</ele>
        <time>2019-08-24T11:25:45Z</time>
      </trkpt>
      <trkpt lat="59.451956381784" lon="17.978832931747">
        <ele>29.6</ele>
        <time>2019-08-24T11:25:48Z</time>
      </trkpt>
      <trkpt lat="59.452137682281" lon="17.978788759134">
        <ele>30.4</ele>
        <time>2019-08-24T11:25:55Z</time>
      </trkpt>
      <trkpt lat="59.452247233714" lon="17.978772246791">
        <ele>29.6</ele>
        <time>2019-08-24T11:25:59Z</time>
      </trkpt>
      <trkpt lat="59.452446052382" lon="17.978749028928">
        <ele>29.4</ele>
        <time>2019-08-24T11:26:06Z</time>
      </trkpt>
      <trkpt lat="59.452634728951" lon="17.978636962925">
        <ele>28.8</ele>
        <time>2019-08-24T11:26:13Z</time>
      </trkpt>
      <trkpt lat="59.452812676688" lon="17.978480389033">
        <ele>29.6</ele>
        <time>2019-08-24T11:26:19Z</time>
      </trkpt>
      <trkpt lat="59.452972100426" lon="17.97827360756">
        <ele>30.4</ele>
        <time>2019-08-24T11:26:26Z</time>
      </trkpt>
      <trkpt lat="59.453023230016" lon="17.978219376667">
        <ele>30.8</ele>
        <time>2019-08-24T11:26:28Z</time>
      </trkpt>
      <trkpt lat="59.453117023477" lon="17.978040004007">
        <ele>31.8</ele>
        <time>2019-08-24T11:26:32Z</time>
      </trkpt>
      <trkpt lat="59.453246440013" lon="17.97789558387">
        <ele>33</ele>
        <time>2019-08-24T11:26:38Z</time>
      </trkpt>
      <trkpt lat="59.453394548186" lon="17.977685365818">
        <ele>33</ele>
        <time>2019-08-24T11:26:46Z</time>
      </trkpt>
      <trkpt lat="59.453555480666" lon="17.977514710334">
        <ele>33</ele>
        <time>2019-08-24T11:26:53Z</time>
      </trkpt>
      <trkpt lat="59.453754550791" lon="17.977423934357">
        <ele>33</ele>
        <time>2019-08-24T11:27:00Z</time>
      </trkpt>
      <trkpt lat="59.453913639253" lon="17.977321675177">
        <ele>31.8</ele>
        <time>2019-08-24T11:27:06Z</time>
      </trkpt>
      <trkpt lat="59.454026711084" lon="17.977239784014">
        <ele>30.8</ele>
        <time>2019-08-24T11:27:10Z</time>
      </trkpt>
      <trkpt lat="59.454106758229" lon="17.977142721612">
        <ele>29.6</ele>
        <time>2019-08-24T11:27:13Z</time>
      </trkpt>
      <trkpt lat="59.454190241953" lon="17.97702302808">
        <ele>28.6</ele>
        <time>2019-08-24T11:27:17Z</time>
      </trkpt>
      <trkpt lat="59.454248077063" lon="17.976900987616">
        <ele>27.6</ele>
        <time>2019-08-24T11:27:20Z</time>
      </trkpt>
      <trkpt lat="59.454332818072" lon="17.976709042106">
        <ele>26.4</ele>
        <time>2019-08-24T11:27:25Z</time>
      </trkpt>
      <trkpt lat="59.45445033231" lon="17.976407964258">
        <ele>26</ele>
        <time>2019-08-24T11:27:32Z</time>
      </trkpt>
      <trkpt lat="59.454608582582" lon="17.976176372361">
        <ele>25.4</ele>
        <time>2019-08-24T11:27:39Z</time>
      </trkpt>
      <trkpt lat="59.454760546429" lon="17.975990713276">
        <ele>24</ele>
        <time>2019-08-24T11:27:46Z</time>
      </trkpt>
      <trkpt lat="59.454854088433" lon="17.975812094987">
        <ele>22.8</ele>
        <time>2019-08-24T11:27:51Z</time>
      </trkpt>
      <trkpt lat="59.454896500847" lon="17.975717463336">
        <ele>21.8</ele>
        <time>2019-08-24T11:27:54Z</time>
      </trkpt>
      <trkpt lat="59.454924831669" lon="17.975648815575">
        <ele>20.6</ele>
        <time>2019-08-24T11:27:56Z</time>
      </trkpt>
      <trkpt lat="59.454961125296" lon="17.975569522801">
        <ele>19.4</ele>
        <time>2019-08-24T11:27:58Z</time>
      </trkpt>
      <trkpt lat="59.455001106959" lon="17.97545058364">
        <ele>18.2</ele>
        <time>2019-08-24T11:28:01Z</time>
      </trkpt>
      <trkpt lat="59.455045782486" lon="17.975313371937">
        <ele>17</ele>
        <time>2019-08-24T11:28:04Z</time>
      </trkpt>
      <trkpt lat="59.455096912076" lon="17.975180518822">
        <ele>15.8</ele>
        <time>2019-08-24T11:28:07Z</time>
      </trkpt>
      <trkpt lat="59.455200931455" lon="17.974880530621">
        <ele>14.8</ele>
        <time>2019-08-24T11:28:14Z</time>
      </trkpt>
      <trkpt lat="59.455214258676" lon="17.974833759619">
        <ele>14.6</ele>
        <time>2019-08-24T11:28:15Z</time>
      </trkpt>
      <trkpt lat="59.455251809588" lon="17.974446515839">
        <ele>14.2</ele>
        <time>2019-08-24T11:28:22Z</time>
      </trkpt>
      <trkpt lat="59.45531115344" lon="17.974074191841">
        <ele>14.2</ele>
        <time>2019-08-24T11:28:31Z</time>
      </trkpt>
      <trkpt lat="59.45541592719" lon="17.973719553652">
        <ele>14</ele>
        <time>2019-08-24T11:28:39Z</time>
      </trkpt>
      <trkpt lat="59.4554905261" lon="17.973338512478">
        <ele>14</ele>
        <time>2019-08-24T11:28:46Z</time>
      </trkpt>
      <trkpt lat="59.455516258533" lon="17.972983119918">
        <ele>14</ele>
        <time>2019-08-24T11:28:52Z</time>
      </trkpt>
      <trkpt lat="59.455437384854" lon="17.972611717929">
        <ele>14</ele>
        <time>2019-08-24T11:28:59Z</time>
      </trkpt>
      <trkpt lat="59.455364127048" lon="17.972274514092">
        <ele>14</ele>
        <time>2019-08-24T11:29:05Z</time>
      </trkpt>
      <trkpt lat="59.455306711033" lon="17.971926162328">
        <ele>14.2</ele>
        <time>2019-08-24T11:29:11Z</time>
      </trkpt>
      <trkpt lat="59.455294641097" lon="17.97181954456">
        <ele>14.4</ele>
        <time>2019-08-24T11:29:13Z</time>
      </trkpt>
      <trkpt lat="59.455254324158" lon="17.971737569578">
        <ele>14.6</ele>
        <time>2019-08-24T11:29:15Z</time>
      </trkpt>
      <trkpt lat="59.455080399733" lon="17.971607063395">
        <ele>15.4</ele>
        <time>2019-08-24T11:29:22Z</time>
      </trkpt>
      <trkpt lat="59.455057684784" lon="17.97158652774">
        <ele>15.8</ele>
        <time>2019-08-24T11:29:23Z</time>
      </trkpt>
      <trkpt lat="59.454983756426" lon="17.971533637951">
        <ele>16.8</ele>
        <time>2019-08-24T11:29:26Z</time>
      </trkpt>
      <trkpt lat="59.454907229679" lon="17.971416039894">
        <ele>17.8</ele>
        <time>2019-08-24T11:29:30Z</time>
      </trkpt>
      <trkpt lat="59.454854256071" lon="17.971280420752">
        <ele>18.8</ele>
        <time>2019-08-24T11:29:34Z</time>
      </trkpt>
      <trkpt lat="59.454811508381" lon="17.971201379435">
        <ele>20</ele>
        <time>2019-08-24T11:29:37Z</time>
      </trkpt>
      <trkpt lat="59.454783009921" lon="17.971162822695">
        <ele>21.2</ele>
        <time>2019-08-24T11:29:39Z</time>
      </trkpt>
      <trkpt lat="59.454744453181" lon="17.971133988959">
        <ele>22.4</ele>
        <time>2019-08-24T11:29:42Z</time>
      </trkpt>
      <trkpt lat="59.454684522596" lon="17.971096689504">
        <ele>23.6</ele>
        <time>2019-08-24T11:29:46Z</time>
      </trkpt>
      <trkpt lat="59.45462132307" lon="17.97104170424">
        <ele>24.8</ele>
        <time>2019-08-24T11:29:50Z</time>
      </trkpt>
      <trkpt lat="59.454536414423" lon="17.970938187775">
        <ele>26</ele>
        <time>2019-08-24T11:29:56Z</time>
      </trkpt>
      <trkpt lat="59.45448385991" lon="17.970885465624">
        <ele>27.2</ele>
        <time>2019-08-24T11:29:59Z</time>
      </trkpt>
      <trkpt lat="59.454399118901" lon="17.970757893106">
        <ele>28.4</ele>
        <time>2019-08-24T11:30:05Z</time>
      </trkpt>
      <trkpt lat="59.454329213855" lon="17.970635852642">
        <ele>29.4</ele>
        <time>2019-08-24T11:30:10Z</time>
      </trkpt>
      <trkpt lat="59.454289483649" lon="17.970577179342">
        <ele>30.6</ele>
        <time>2019-08-24T11:30:13Z</time>
      </trkpt>
      <trkpt lat="59.454235588032" lon="17.97037282862">
        <ele>31.6</ele>
        <time>2019-08-24T11:30:18Z</time>
      </trkpt>
      <trkpt lat="59.454179177845" lon="17.970169902821">
        <ele>32.8</ele>
        <time>2019-08-24T11:30:23Z</time>
      </trkpt>
      <trkpt lat="59.45415445124" lon="17.970053310592">
        <ele>33.8</ele>
        <time>2019-08-24T11:30:26Z</time>
      </trkpt>
      <trkpt lat="59.454141543114" lon="17.969928755558">
        <ele>35</ele>
        <time>2019-08-24T11:30:30Z</time>
      </trkpt>
      <trkpt lat="59.454156295258" lon="17.969836554658">
        <ele>35.8</ele>
        <time>2019-08-24T11:30:34Z</time>
      </trkpt>
      <trkpt lat="59.454156881991" lon="17.969812163329">
        <ele>36.2</ele>
        <time>2019-08-24T11:30:35Z</time>
      </trkpt>
      <trkpt lat="59.454151685213" lon="17.969669503391">
        <ele>37.4</ele>
        <time>2019-08-24T11:30:40Z</time>
      </trkpt>
      <trkpt lat="59.454149505919" lon="17.969529274204">
        <ele>38.4</ele>
        <time>2019-08-24T11:30:45Z</time>
      </trkpt>
      <trkpt lat="59.454151685213" lon="17.969456351674">
        <ele>39.6</ele>
        <time>2019-08-24T11:30:49Z</time>
      </trkpt>
      <trkpt lat="59.454147661901" lon="17.969432714716">
        <ele>39.8</ele>
        <time>2019-08-24T11:30:50Z</time>
      </trkpt>
      <trkpt lat="59.454132993576" lon="17.969404886808">
        <ele>40.4</ele>
        <time>2019-08-24T11:30:52Z</time>
      </trkpt>
      <trkpt lat="59.454111535912" lon="17.969379824927">
        <ele>40.6</ele>
        <time>2019-08-24T11:30:54Z</time>
      </trkpt>
      <trkpt lat="59.453917327289" lon="17.96927228515">
        <ele>39.8</ele>
        <time>2019-08-24T11:31:04Z</time>
      </trkpt>
      <trkpt lat="59.453890840485" lon="17.969263316517">
        <ele>39.4</ele>
        <time>2019-08-24T11:31:05Z</time>
      </trkpt>
      <trkpt lat="59.453787072563" lon="17.969200955181">
        <ele>38.4</ele>
        <time>2019-08-24T11:31:09Z</time>
      </trkpt>
      <trkpt lat="59.453662768986" lon="17.969111185032">
        <ele>37.2</ele>
        <time>2019-08-24T11:31:14Z</time>
      </trkpt>
      <trkpt lat="59.453552211725" lon="17.969019067951">
        <ele>36.2</ele>
        <time>2019-08-24T11:31:18Z</time>
      </trkpt>
      <trkpt lat="59.45346126811" lon="17.968879425497">
        <ele>34.6</ele>
        <time>2019-08-24T11:31:22Z</time>
      </trkpt>
      <trkpt lat="59.453409048873" lon="17.968871043597">
        <ele>33.4</ele>
        <time>2019-08-24T11:31:24Z</time>
      </trkpt>
      <trkpt lat="59.4533615235" lon="17.968860566222">
        <ele>32.2</ele>
        <time>2019-08-24T11:31:26Z</time>
      </trkpt>
      <trkpt lat="59.453301760553" lon="17.968815052505">
        <ele>31.2</ele>
        <time>2019-08-24T11:31:29Z</time>
      </trkpt>
      <trkpt lat="59.453198747002" lon="17.968808430804">
        <ele>29.8</ele>
        <time>2019-08-24T11:31:33Z</time>
      </trkpt>
      <trkpt lat="59.45306228967" lon="17.968803569302">
        <ele>28.6</ele>
        <time>2019-08-24T11:31:38Z</time>
      </trkpt>
      <trkpt lat="59.452951480952" lon="17.968847909553">
        <ele>27.6</ele>
        <time>2019-08-24T11:31:42Z</time>
      </trkpt>
      <trkpt lat="59.452765654229" lon="17.968953186217">
        <ele>26.6</ele>
        <time>2019-08-24T11:31:50Z</time>
      </trkpt>
      <trkpt lat="59.452719637598" lon="17.969014206449">
        <ele>26.6</ele>
        <time>2019-08-24T11:31:53Z</time>
      </trkpt>
      <trkpt lat="59.452670519664" lon="17.969090733196">
        <ele>26.4</ele>
        <time>2019-08-24T11:31:55Z</time>
      </trkpt>
      <trkpt lat="59.452492823384" lon="17.969268178019">
        <ele>25.6</ele>
        <time>2019-08-24T11:32:01Z</time>
      </trkpt>
      <trkpt lat="59.452453679911" lon="17.969318972333">
        <ele>25.2</ele>
        <time>2019-08-24T11:32:02Z</time>
      </trkpt>
      <trkpt lat="59.452261650582" lon="17.96947596532">
        <ele>24.2</ele>
        <time>2019-08-24T11:32:07Z</time>
      </trkpt>
      <trkpt lat="59.452226278964" lon="17.969494992233">
        <ele>24.2</ele>
        <time>2019-08-24T11:32:08Z</time>
      </trkpt>
      <trkpt lat="59.45202712502" lon="17.969554000809">
        <ele>23.6</ele>
        <time>2019-08-24T11:32:13Z</time>
      </trkpt>
      <trkpt lat="59.45188127996" lon="17.969553749352">
        <ele>23</ele>
        <time>2019-08-24T11:32:18Z</time>
      </trkpt>
      <trkpt lat="59.451679862903" lon="17.969604878942">
        <ele>21.8</ele>
        <time>2019-08-24T11:32:26Z</time>
      </trkpt>
      <trkpt lat="59.451483307348" lon="17.969563388537">
        <ele>21.6</ele>
        <time>2019-08-24T11:32:35Z</time>
      </trkpt>
      <trkpt lat="59.451419018175" lon="17.969587360771">
        <ele>21.4</ele>
        <time>2019-08-24T11:32:38Z</time>
      </trkpt>
      <trkpt lat="59.451327739284" lon="17.969563807632">
        <ele>20.8</ele>
        <time>2019-08-24T11:32:42Z</time>
      </trkpt>
      <trkpt lat="59.451224474276" lon="17.969551150963">
        <ele>21.2</ele>
        <time>2019-08-24T11:32:45Z</time>
      </trkpt>
    </trkseg>
  </trk>
</gpx>